KVNY/VNY METAR and TAF weather

Enter ICAO airport designator
Station Type Date Time Source
KVNY METAR 2022/01/29 10:51 UTC NOAA

KVNY 291051Z AUTO 28003KT 10SM CLR 11/M11 A3015 RMK AO2 SLP204 T01111111


Station Type Date Time Source
KVNY Decoded METAR 2022/01/29 10:51 UTC NOAA

VAN NUYS AIRPORT, CA, United States (KVNY) 34-13N 118-29W 245M
Jan 29, 2022 - 05:51 AM EST / 2022.01.29 1051 UTC
Wind: from the W (280 degrees) at 3 MPH (3 KT):0
Visibility: 10 mile(s):0
Sky conditions: clear
Temperature: 52.0 F (11.1 C)
Dew Point: 12.0 F (-11.1 C)
Relative Humidity: 19%
Pressure (altimeter): 30.15 in. Hg (1020 hPa)
ob: KVNY 291051Z AUTO 28003KT 10SM CLR 11/M11 A3015 RMK AO2 SLP204 T01111111
cycle: 11

Station Type Date Time Source
KVNY TAF 2022/01/29 12:24 UTC NOAA

TAF KVNY 291124Z 2912/3012 VRB03KT P6SM SCT200

Example: see airport list